Lowell, Ohio
Current Conditions -  °F | °C
As of 6:53 AM on Thursday 23 Oct 2014 (Local Time) from KPKB Reporting Station
Overcast Overcast  
Wind Chill: 43°   Ceiling: 4100
Heat Index: 45°   Visibility: 10mi
Dew Point: 41°   Wind: 5mph
Humidity: 86%   Direction: 310°NW
Pressure: 30.21"   Gusts: NA
Location:  39.53°N, 81.51°W
Report Text: KPKB 231053Z 31004KT 10SM OVC041 07/05 A3021 RMK AO2 SLP232 T00720050
Loading
Personal Weather Stations






























Interactive Weather Map New forecast layout! Learn more

10-Day Weather Forecast

Advertisements
Track Severe Weather on mobile